Time,TemperatureF,DewpointF,PressureIn,WindDirection,WindDirectionDegrees,WindSpeedMPH,WindSpeedGustMPH,Humidity,HourlyPrecipIn,Conditions,Clouds,dailyrainin,SolarRadiationWatts/m^2,SoftwareType,DateUTC
2013-07-07 00:04:00,72.6,70.5,30.02,SE,136,0.0,0.0,93,0.00,,,0.00,0,Wunderground v.1.15,2013-07-07 04:04:00,
2013-07-07 00:09:00,72.5,70.4,30.02,SE,136,0.0,0.0,93,0.00,,,0.00,0,Wunderground v.1.15,2013-07-07 04:09:00,
2013-07-07 00:19:00,72.3,70.5,30.02,SE,136,0.0,0.0,94,0.00,,,0.00,0,Wunderground v.1.15,2013-07-07 04:19:00,
2013-07-07 00:24:00,72.2,70.4,30.02,SE,136,0.0,0.0,94,0.00,,,0.00,0,Wunderground v.1.15,2013-07-07 04:24:00,
2013-07-07 00:29:00,72.1,70.3,30.02,SE,136,0.0,0.0,94,0.00,,,0.00,0,Wunderground v.1.15,2013-07-07 04:29:00,
2013-07-07 00:34:00,72.0,70.2,30.02,SE,136,0.0,0.0,94,0.00,,,0.00,0,Wunderground v.1.15,2013-07-07 04:34:00,
2013-07-07 00:39:00,71.9,70.1,30.02,SE,136,0.0,0.0,94,0.00,,,0.00,0,Wunderground v.1.15,2013-07-07 04:39:00,
2013-07-07 00:44:00,71.9,70.1,30.02,SE,136,0.0,0.0,94,0.00,,,0.00,0,Wunderground v.1.15,2013-07-07 04:44:00,
2013-07-07 00:54:00,71.7,70.2,30.02,SE,136,0.0,0.0,95,0.00,,,0.00,0,Wunderground v.1.15,2013-07-07 04:54:00,
2013-07-07 00:59:00,71.7,70.2,30.02,SE,136,0.0,0.0,95,0.00,,,0.00,0,Wunderground v.1.15,2013-07-07 04:59:00,
2013-07-07 01:04:00,71.6,70.1,30.02,SE,136,0.0,0.0,95,0.00,,,0.00,0,Wunderground v.1.15,2013-07-07 05:04:00,
2013-07-07 01:09:00,71.6,70.1,30.02,SE,136,0.0,0.0,95,0.00,,,0.00,0,Wunderground v.1.15,2013-07-07 05:09:00,
2013-07-07 01:14:00,71.5,70.0,30.02,SE,136,0.0,0.0,95,0.00,,,0.00,0,Wunderground v.1.15,2013-07-07 05:14:00,
2013-07-07 01:19:00,71.5,70.0,30.02,SE,136,0.0,0.0,95,0.00,,,0.00,0,Wunderground v.1.15,2013-07-07 05:19:00,
2013-07-07 01:24:00,71.4,69.9,30.02,SE,136,0.0,0.0,95,0.00,,,0.00,0,Wunderground v.1.15,2013-07-07 05:24:00,
2013-07-07 01:29:00,71.4,69.9,30.02,SE,136,0.0,0.0,95,0.00,,,0.00,0,Wunderground v.1.15,2013-07-07 05:29:00,
2013-07-07 01:34:00,71.3,69.8,30.02,SE,136,0.0,0.0,95,0.00,,,0.00,0,Wunderground v.1.15,2013-07-07 05:34:00,
2013-07-07 01:39:00,71.3,69.8,30.02,SE,136,0.0,0.0,95,0.00,,,0.00,0,Wunderground v.1.15,2013-07-07 05:39:00,
2013-07-07 01:49:00,71.3,69.8,30.02,SE,136,0.0,0.0,95,0.00,,,0.00,0,Wunderground v.1.15,2013-07-07 05:49:00,
2013-07-07 01:59:00,71.3,69.8,30.02,SE,136,0.0,0.0,95,0.00,,,0.00,0,Wunderground v.1.15,2013-07-07 05:59:00,
2013-07-07 02:04:00,71.3,69.8,30.02,SE,136,0.0,0.0,95,0.00,,,0.00,0,Wunderground v.1.15,2013-07-07 06:04:00,
2013-07-07 02:14:00,71.2,69.7,30.01,SE,136,0.0,0.0,95,0.00,,,0.00,0,Wunderground v.1.15,2013-07-07 06:14:00,
2013-07-07 02:19:00,71.2,69.7,30.01,SE,136,0.0,0.0,95,0.00,,,0.00,0,Wunderground v.1.15,2013-07-07 06:19:00,
2013-07-07 02:29:00,71.1,69.9,30.01,SE,136,0.0,0.0,96,0.00,,,0.00,0,Wunderground v.1.15,2013-07-07 06:29:00,
2013-07-07 02:39:00,71.0,69.8,30.01,SE,136,0.0,0.0,96,0.00,,,0.00,0,Wunderground v.1.15,2013-07-07 06:39:00,
2013-07-07 02:44:00,70.9,69.7,30.01,SE,136,0.0,0.0,96,0.00,,,0.00,0,Wunderground v.1.15,2013-07-07 06:44:00,
2013-07-07 02:54:00,70.8,69.6,30.00,SE,136,0.0,0.0,96,0.00,,,0.00,0,Wunderground v.1.15,2013-07-07 06:54:00,
2013-07-07 02:59:00,70.7,69.5,30.00,SE,136,0.0,0.0,96,0.00,,,0.00,0,Wunderground v.1.15,2013-07-07 06:59:00,
2013-07-07 03:04:00,70.7,69.5,30.00,SE,136,0.0,0.0,96,0.00,,,0.00,0,Wunderground v.1.15,2013-07-07 07:04:00,
2013-07-07 03:09:00,70.6,69.4,30.00,SE,136,0.0,0.0,96,0.00,,,0.00,0,Wunderground v.1.15,2013-07-07 07:09:00,
2013-07-07 03:19:00,70.6,69.4,30.00,SE,136,0.0,0.0,96,0.00,,,0.00,0,Wunderground v.1.15,2013-07-07 07:19:00,
2013-07-07 03:29:00,70.5,69.6,30.00,SE,136,0.0,0.0,97,0.00,,,0.00,0,Wunderground v.1.15,2013-07-07 07:29:00,
2013-07-07 03:34:00,70.5,69.6,30.00,SE,136,0.0,0.0,97,0.00,,,0.00,0,Wunderground v.1.15,2013-07-07 07:34:00,
2013-07-07 03:39:00,70.5,69.6,30.00,SE,136,0.0,0.0,97,0.00,,,0.00,0,Wunderground v.1.15,2013-07-07 07:39:00,
2013-07-07 03:49:00,70.5,69.6,30.00,SE,136,0.0,0.0,97,0.00,,,0.00,0,Wunderground v.1.15,2013-07-07 07:49:00,
2013-07-07 03:54:00,70.5,69.6,30.00,SE,136,0.0,0.0,97,0.00,,,0.00,0,Wunderground v.1.15,2013-07-07 07:54:00,
2013-07-07 03:59:00,70.5,69.6,30.00,SE,136,0.0,0.0,97,0.00,,,0.00,0,Wunderground v.1.15,2013-07-07 07:59:00,
2013-07-07 04:04:00,70.5,69.6,30.00,SE,136,0.0,0.0,97,0.00,,,0.00,0,Wunderground v.1.15,2013-07-07 08:04:00,
2013-07-07 04:14:00,70.4,69.5,30.00,SE,136,0.0,0.0,97,0.00,,,0.00,0,Wunderground v.1.15,2013-07-07 08:14:00,
2013-07-07 04:19:00,70.4,69.5,30.00,SE,136,0.0,0.0,97,0.00,,,0.00,0,Wunderground v.1.15,2013-07-07 08:19:00,
2013-07-07 04:24:00,70.4,69.5,29.99,SE,136,0.0,0.0,97,0.00,,,0.00,0,Wunderground v.1.15,2013-07-07 08:24:00,
2013-07-07 04:29:00,70.3,69.4,30.00,SE,136,0.0,0.0,97,0.00,,,0.00,0,Wunderground v.1.15,2013-07-07 08:29:00,
2013-07-07 04:39:00,70.3,69.4,29.99,SE,136,0.0,0.0,97,0.00,,,0.00,0,Wunderground v.1.15,2013-07-07 08:39:00,
2013-07-07 04:49:00,70.1,69.2,30.00,SE,136,0.0,0.0,97,0.00,,,0.00,0,Wunderground v.1.15,2013-07-07 08:49:00,
2013-07-07 04:54:00,70.1,69.2,30.00,SE,136,0.0,0.0,97,0.00,,,0.00,0,Wunderground v.1.15,2013-07-07 08:54:00,
2013-07-07 04:59:00,70.1,69.2,30.00,SSE,153,0.0,0.0,97,0.00,,,0.00,0,Wunderground v.1.15,2013-07-07 08:59:00,
2013-07-07 05:09:00,70.0,69.1,30.00,SSE,153,0.0,0.0,97,0.00,,,0.00,0,Wunderground v.1.15,2013-07-07 09:09:00,
2013-07-07 05:14:00,70.0,69.1,30.00,SSE,153,0.0,0.0,97,0.00,,,0.00,0,Wunderground v.1.15,2013-07-07 09:14:00,
2013-07-07 05:24:00,69.9,69.3,30.00,SSE,153,0.0,0.0,98,0.00,,,0.00,0,Wunderground v.1.15,2013-07-07 09:24:00,
2013-07-07 05:29:00,69.9,69.3,30.00,SSE,153,0.0,1.0,98,0.00,,,0.00,5,Wunderground v.1.15,2013-07-07 09:29:00,
2013-07-07 05:34:00,69.9,69.3,30.00,SSE,153,0.0,0.0,98,0.00,,,0.00,7,Wunderground v.1.15,2013-07-07 09:34:00,
2013-07-07 05:39:00,69.9,69.3,30.00,SSE,153,0.0,0.0,98,0.00,,,0.00,9,Wunderground v.1.15,2013-07-07 09:39:00,
2013-07-07 05:49:00,70.0,69.4,30.00,SSE,153,0.0,0.0,98,0.00,,,0.00,11,Wunderground v.1.15,2013-07-07 09:49:00,
2013-07-07 05:54:00,70.1,69.5,30.00,SSE,153,0.0,0.0,98,0.00,,,0.00,14,Wunderground v.1.15,2013-07-07 09:54:00,
2013-07-07 06:04:00,70.2,69.6,30.00,SSE,165,0.0,0.0,98,0.00,,,0.00,21,Wunderground v.1.15,2013-07-07 10:04:00,
2013-07-07 06:14:00,70.3,69.7,30.00,WNW,288,1.0,1.0,98,0.00,,,0.00,32,Wunderground v.1.15,2013-07-07 10:14:00,
2013-07-07 06:19:00,70.4,70.1,30.00,WNW,292,1.0,1.0,99,0.00,,,0.00,49,Wunderground v.1.15,2013-07-07 10:19:00,
2013-07-07 06:29:00,70.8,70.5,30.00,WNW,292,0.0,0.0,99,0.00,,,0.00,88,Wunderground v.1.15,2013-07-07 10:29:00,
2013-07-07 06:34:00,71.1,70.8,30.00,WNW,292,0.0,0.0,99,0.00,,,0.00,104,Wunderground v.1.15,2013-07-07 10:34:00,
2013-07-07 06:39:00,71.4,71.1,30.00,WNW,292,0.0,0.0,99,0.00,,,0.00,116,Wunderground v.1.15,2013-07-07 10:39:00,
2013-07-07 06:44:00,71.9,71.6,30.00,WNW,292,0.0,0.0,99,0.00,,,0.00,134,Wunderground v.1.15,2013-07-07 10:44:00,
2013-07-07 06:49:00,72.3,72.0,30.00,WNW,292,0.0,0.0,99,0.00,,,0.00,149,Wunderground v.1.15,2013-07-07 10:49:00,
2013-07-07 06:59:00,73.2,72.9,30.00,East,92,0.0,0.0,99,0.00,,,0.00,179,Wunderground v.1.15,2013-07-07 10:59:00,
2013-07-07 07:04:00,73.8,73.2,30.00,East,84,0.0,0.0,98,0.00,,,0.00,197,Wunderground v.1.15,2013-07-07 11:04:00,
2013-07-07 07:09:00,74.4,73.5,30.00,NNE,23,0.0,1.0,97,0.00,,,0.00,213,Wunderground v.1.15,2013-07-07 11:09:00,
2013-07-07 07:14:00,75.1,73.9,30.01,NNE,23,0.0,0.0,96,0.00,,,0.00,229,Wunderground v.1.15,2013-07-07 11:14:00,
2013-07-07 07:19:00,75.7,73.8,30.01,NNE,23,0.0,0.0,94,0.00,,,0.00,63,Wunderground v.1.15,2013-07-07 11:19:00,
2013-07-07 07:24:00,76.2,74.0,30.01,NNE,23,0.0,0.0,93,0.00,,,0.00,218,Wunderground v.1.15,2013-07-07 11:24:00,
2013-07-07 07:34:00,77.3,74.5,30.01,NNE,23,0.0,0.0,91,0.00,,,0.00,294,Wunderground v.1.15,2013-07-07 11:34:00,
2013-07-07 07:39:00,78.0,75.2,30.01,NNE,23,0.0,0.0,91,0.00,,,0.00,309,Wunderground v.1.15,2013-07-07 11:39:00,
2013-07-07 07:49:00,79.1,75.2,30.00,NNW,331,0.0,1.0,88,0.00,,,0.00,341,Wunderground v.1.15,2013-07-07 11:49:00,
2013-07-07 07:54:00,79.7,75.5,30.00,NNW,331,0.0,2.0,87,0.00,,,0.00,336,Wunderground v.1.15,2013-07-07 11:54:00,
2013-07-07 08:04:00,80.8,75.5,30.00,SE,146,0.0,0.0,84,0.00,,,0.00,304,Wunderground v.1.15,2013-07-07 12:04:00,
2013-07-07 08:09:00,81.2,75.5,30.00,NE,51,0.0,0.0,83,0.00,,,0.00,316,Wunderground v.1.15,2013-07-07 12:09:00,
2013-07-07 08:14:00,81.4,75.7,30.00,NE,36,1.0,1.0,83,0.00,,,0.00,97,Wunderground v.1.15,2013-07-07 12:14:00,
2013-07-07 08:19:00,81.6,76.3,30.00,NE,36,0.0,1.0,84,0.00,,,0.00,404,Wunderground v.1.15,2013-07-07 12:19:00,
2013-07-07 08:29:00,82.3,75.5,30.01,NNE,26,0.0,1.0,80,0.00,,,0.00,434,Wunderground v.1.15,2013-07-07 12:29:00,
2013-07-07 08:34:00,82.7,75.5,30.01,SSW,197,0.0,0.0,79,0.00,,,0.00,448,Wunderground v.1.15,2013-07-07 12:34:00,
2013-07-07 08:39:00,83.1,75.9,30.00,SE,128,1.0,1.0,79,0.00,,,0.00,466,Wunderground v.1.15,2013-07-07 12:39:00,
2013-07-07 08:44:00,83.4,75.4,30.00,SE,144,1.0,1.0,77,0.00,,,0.00,480,Wunderground v.1.15,2013-07-07 12:44:00,
2013-07-07 08:54:00,83.9,76.3,30.00,WNW,296,1.0,1.0,78,0.00,,,0.00,513,Wunderground v.1.15,2013-07-07 12:54:00,
2013-07-07 08:59:00,83.9,75.5,30.00,NNE,22,1.0,1.0,76,0.00,,,0.00,527,Wunderground v.1.15,2013-07-07 12:59:00,
2013-07-07 09:09:00,84.0,76.4,30.00,East,93,1.0,2.0,78,0.00,,,0.00,552,Wunderground v.1.15,2013-07-07 13:09:00,
2013-07-07 09:14:00,84.2,75.8,30.00,NNW,331,1.0,1.0,76,0.00,,,0.00,512,Wunderground v.1.15,2013-07-07 13:14:00,
2013-07-07 09:19:00,84.3,75.5,30.00,NNE,13,1.0,1.0,75,0.00,,,0.00,578,Wunderground v.1.15,2013-07-07 13:19:00,
2013-07-07 09:24:00,84.8,75.2,30.00,North,350,1.0,1.0,73,0.00,,,0.00,591,Wunderground v.1.15,2013-07-07 13:24:00,
2013-07-07 09:29:00,84.6,75.4,30.00,South,177,1.0,2.0,74,0.00,,,0.00,601,Wunderground v.1.15,2013-07-07 13:29:00,
2013-07-07 09:34:00,84.9,77.3,29.99,South,175,1.0,1.0,78,0.00,,,0.00,619,Wunderground v.1.15,2013-07-07 13:34:00,
2013-07-07 09:39:00,85.1,75.9,29.99,SE,126,1.0,1.0,74,0.00,,,0.00,635,Wunderground v.1.15,2013-07-07 13:39:00,
2013-07-07 09:49:00,85.5,75.4,29.99,NNW,333,1.0,1.0,72,0.00,,,0.00,664,Wunderground v.1.15,2013-07-07 13:49:00,
2013-07-07 09:54:00,85.3,74.8,29.99,ESE,105,1.0,1.0,71,0.00,,,0.00,617,Wunderground v.1.15,2013-07-07 13:54:00,
2013-07-07 10:04:00,85.7,75.6,29.99,NE,36,1.0,1.0,72,0.00,,,0.00,686,Wunderground v.1.15,2013-07-07 14:04:00,
2013-07-07 10:14:00,85.6,76.4,29.99,NNE,30,1.0,1.0,74,0.00,,,0.00,747,Wunderground v.1.15,2013-07-07 14:14:00,
2013-07-07 10:19:00,85.4,76.2,29.99,ESE,121,2.0,2.0,74,0.00,,,0.00,793,Wunderground v.1.15,2013-07-07 14:19:00,
2013-07-07 10:29:00,85.5,75.4,29.99,North,355,1.0,1.0,72,0.00,,,0.00,163,Wunderground v.1.15,2013-07-07 14:29:00,
2013-07-07 10:39:00,86.2,75.7,29.99,North,5,0.0,1.0,71,0.00,,,0.00,838,Wunderground v.1.15,2013-07-07 14:39:00,
2013-07-07 10:49:00,87.0,76.5,29.99,SW,214,1.0,2.0,71,0.00,,,0.00,192,Wunderground v.1.15,2013-07-07 14:49:00,
2013-07-07 10:59:00,86.4,75.0,29.98,NNE,22,2.0,3.0,69,0.00,,,0.00,838,Wunderground v.1.15,2013-07-07 14:59:00,
2013-07-07 11:04:00,86.7,75.3,29.98,South,180,2.0,2.0,69,0.00,,,0.00,905,Wunderground v.1.15,2013-07-07 15:04:00,
2013-07-07 11:14:00,85.9,75.0,29.98,SE,130,1.0,2.0,70,0.00,,,0.00,935,Wunderground v.1.15,2013-07-07 15:14:00,
2013-07-07 11:19:00,87.4,76.4,29.98,SSE,163,1.0,2.0,70,0.00,,,0.00,919,Wunderground v.1.15,2013-07-07 15:19:00,
2013-07-07 11:24:00,87.4,76.8,29.98,East,82,2.0,3.0,71,0.00,,,0.00,962,Wunderground v.1.15,2013-07-07 15:24:00,
2013-07-07 11:29:00,86.7,74.0,29.98,ESE,110,2.0,3.0,66,0.00,,,0.00,956,Wunderground v.1.15,2013-07-07 15:29:00,
2013-07-07 11:39:00,86.6,74.8,29.97,SSE,156,2.0,2.0,68,0.00,,,0.00,909,Wunderground v.1.15,2013-07-07 15:39:00,
2013-07-07 11:44:00,87.1,77.0,29.97,East,79,1.0,1.0,72,0.00,,,0.00,835,Wunderground v.1.15,2013-07-07 15:44:00,
2013-07-07 11:49:00,87.4,75.5,29.97,ENE,63,1.0,3.0,68,0.00,,,0.00,954,Wunderground v.1.15,2013-07-07 15:49:00,
2013-07-07 11:54:00,88.4,76.0,29.97,SE,125,1.0,3.0,67,0.00,,,0.00,1042,Wunderground v.1.15,2013-07-07 15:54:00,
2013-07-07 12:04:00,87.7,76.3,29.97,SSE,161,2.0,2.0,69,0.00,,,0.00,204,Wunderground v.1.15,2013-07-07 16:04:00,
2013-07-07 12:14:00,84.9,75.7,29.97,SSW,192,1.0,1.0,74,0.00,,,0.00,462,Wunderground v.1.15,2013-07-07 16:14:00,
2013-07-07 12:24:00,84.5,76.9,29.97,North,355,0.0,0.0,78,0.00,,,0.00,661,Wunderground v.1.15,2013-07-07 16:24:00,
2013-07-07 12:34:00,86.9,76.8,29.97,NW,307,1.0,3.0,72,0.00,,,0.00,1037,Wunderground v.1.15,2013-07-07 16:34:00,
2013-07-07 12:39:00,87.6,75.7,29.96,NNW,345,2.0,3.0,68,0.00,,,0.00,1035,Wunderground v.1.15,2013-07-07 16:39:00,
2013-07-07 12:44:00,87.5,78.2,29.96,ENE,58,2.0,2.0,74,0.00,,,0.00,889,Wunderground v.1.15,2013-07-07 16:44:00,
2013-07-07 12:54:00,86.1,76.8,29.96,ESE,112,1.0,1.0,74,0.00,,,0.00,302,Wunderground v.1.15,2013-07-07 16:54:00,
2013-07-07 12:59:00,85.3,78.0,29.96,NNW,339,0.0,1.0,79,0.00,,,0.00,497,Wunderground v.1.15,2013-07-07 16:59:00,
2013-07-07 13:04:00,85.4,74.9,29.96,South,185,1.0,2.0,71,0.00,,,0.00,679,Wunderground v.1.15,2013-07-07 17:04:00,
2013-07-07 13:09:00,85.9,76.2,29.96,ESE,117,1.0,2.0,73,0.00,,,0.00,879,Wunderground v.1.15,2013-07-07 17:09:00,
2013-07-07 13:19:00,87.8,75.9,29.95,South,186,2.0,2.0,68,0.00,,,0.00,933,Wunderground v.1.15,2013-07-07 17:19:00,
2013-07-07 13:29:00,88.4,76.9,29.95,SSE,168,1.0,2.0,69,0.00,,,0.00,951,Wunderground v.1.15,2013-07-07 17:29:00,
2013-07-07 13:39:00,87.7,77.1,29.95,East,98,2.0,2.0,71,0.00,,,0.00,947,Wunderground v.1.15,2013-07-07 17:39:00,
2013-07-07 13:44:00,87.4,76.0,29.94,South,169,2.0,2.0,69,0.00,,,0.00,944,Wunderground v.1.15,2013-07-07 17:44:00,
2013-07-07 13:54:00,87.8,79.3,29.93,East,98,1.0,3.0,76,0.00,,,0.00,965,Wunderground v.1.15,2013-07-07 17:54:00,
2013-07-07 13:59:00,87.7,76.7,29.93,East,101,2.0,3.0,70,0.00,,,0.00,909,Wunderground v.1.15,2013-07-07 17:59:00,
2013-07-07 14:04:00,87.9,79.8,29.93,South,171,2.0,4.0,77,0.00,,,0.00,926,Wunderground v.1.15,2013-07-07 18:04:00,
2013-07-07 14:09:00,87.6,77.9,29.93,SSE,157,3.0,4.0,73,0.00,,,0.00,872,Wunderground v.1.15,2013-07-07 18:09:00,
2013-07-07 14:14:00,87.0,76.9,29.93,SSE,150,2.0,2.0,72,0.00,,,0.00,914,Wunderground v.1.15,2013-07-07 18:14:00,
2013-07-07 14:24:00,88.1,76.6,29.92,ESE,123,2.0,2.0,69,0.00,,,0.00,967,Wunderground v.1.15,2013-07-07 18:24:00,
2013-07-07 14:29:00,87.7,77.1,29.92,ESE,103,2.0,3.0,71,0.00,,,0.00,911,Wunderground v.1.15,2013-07-07 18:29:00,
2013-07-07 14:39:00,87.9,74.7,29.93,SSW,207,2.0,4.0,65,0.00,,,0.00,485,Wunderground v.1.15,2013-07-07 18:39:00,
2013-07-07 14:49:00,86.4,77.5,29.92,SE,145,1.0,2.0,75,0.00,,,0.00,185,Wunderground v.1.15,2013-07-07 18:49:00,
2013-07-07 14:59:00,84.8,77.6,29.93,SSW,196,0.0,0.0,79,0.00,,,0.00,158,Wunderground v.1.15,2013-07-07 18:59:00,
2013-07-07 15:09:00,83.8,77.0,29.92,NNW,340,0.0,0.0,80,0.00,,,0.00,123,Wunderground v.1.15,2013-07-07 19:09:00,
2013-07-07 15:19:00,82.7,76.3,29.92,WNW,290,0.0,2.0,81,0.00,,,0.00,111,Wunderground v.1.15,2013-07-07 19:19:00,
2013-07-07 15:24:00,82.5,77.2,29.92,WNW,290,0.0,0.0,84,0.00,,,0.00,114,Wunderground v.1.15,2013-07-07 19:24:00,
2013-07-07 15:29:00,82.1,77.5,29.92,WNW,290,0.0,0.0,86,0.00,,,0.00,121,Wunderground v.1.15,2013-07-07 19:29:00,
2013-07-07 15:39:00,81.2,75.9,29.91,WNW,290,0.0,0.0,84,0.00,,,0.00,135,Wunderground v.1.15,2013-07-07 19:39:00,
2013-07-07 15:44:00,80.9,76.7,29.91,WNW,290,0.0,0.0,87,0.00,,,0.00,146,Wunderground v.1.15,2013-07-07 19:44:00,
2013-07-07 15:49:00,80.7,76.1,29.92,WNW,290,0.0,0.0,86,0.00,,,0.00,165,Wunderground v.1.15,2013-07-07 19:49:00,
2013-07-07 15:59:00,81.1,77.5,29.92,WNW,290,0.0,0.0,89,0.00,,,0.00,243,Wunderground v.1.15,2013-07-07 19:59:00,
2013-07-07 16:04:00,81.8,77.9,29.92,WNW,290,0.0,1.0,88,0.00,,,0.00,193,Wunderground v.1.15,2013-07-07 20:04:00,
2013-07-07 16:14:00,81.7,74.9,29.92,North,360,5.0,5.0,80,0.00,,,0.00,141,Wunderground v.1.15,2013-07-07 20:14:00,
2013-07-07 16:24:00,79.6,73.6,29.92,NNW,329,3.0,4.0,82,0.00,,,0.00,188,Wunderground v.1.15,2013-07-07 20:24:00,
2013-07-07 16:29:00,79.2,72.9,29.92,North,355,4.0,5.0,81,0.00,,,0.00,76,Wunderground v.1.15,2013-07-07 20:29:00,
2013-07-07 16:39:00,78.2,72.6,29.92,NNW,333,6.0,9.0,83,0.00,,,0.00,54,Wunderground v.1.15,2013-07-07 20:39:00,
2013-07-07 16:44:00,77.7,72.5,29.93,NNW,335,6.0,6.0,84,0.00,,,0.00,37,Wunderground v.1.15,2013-07-07 20:44:00,
2013-07-07 16:49:00,77.3,72.4,29.93,NNW,340,6.0,6.0,85,0.00,,,0.00,53,Wunderground v.1.15,2013-07-07 20:49:00,
2013-07-07 16:54:00,76.9,72.7,29.93,NNW,338,6.0,6.0,87,0.58,,,0.02,19,Wunderground v.1.15,2013-07-07 20:54:00,
2013-07-07 16:59:00,76.3,72.8,29.94,North,5,7.0,8.0,89,0.17,,,0.03,30,Wunderground v.1.15,2013-07-07 20:59:00,
2013-07-07 17:09:00,75.1,72.3,29.92,NW,324,6.0,8.0,91,0.07,,,0.04,146,Wunderground v.1.15,2013-07-07 21:09:00,
2013-07-07 17:14:00,74.8,72.3,29.92,NNW,327,4.0,4.0,92,0.04,,,0.04,153,Wunderground v.1.15,2013-07-07 21:14:00,
2013-07-07 17:24:00,74.6,72.8,29.91,NW,316,1.0,1.0,94,0.00,,,0.04,176,Wunderground v.1.15,2013-07-07 21:24:00,
2013-07-07 17:29:00,74.7,73.2,29.91,NW,316,0.0,1.0,95,0.00,,,0.04,171,Wunderground v.1.15,2013-07-07 21:29:00,
2013-07-07 17:39:00,75.0,73.8,29.90,SSW,192,1.0,1.0,96,0.00,,,0.04,158,Wunderground v.1.15,2013-07-07 21:39:00,
2013-07-07 17:44:00,75.1,73.9,29.90,SSW,192,1.0,1.0,96,0.00,,,0.04,151,Wunderground v.1.15,2013-07-07 21:44:00,
2013-07-07 17:49:00,75.2,74.0,29.90,SSW,192,0.0,1.0,96,0.00,,,0.04,148,Wunderground v.1.15,2013-07-07 21:49:00,
2013-07-07 17:59:00,75.3,74.1,29.90,SSW,192,0.0,0.0,96,0.00,,,0.04,148,Wunderground v.1.15,2013-07-07 21:59:00,
2013-07-07 18:09:00,75.7,74.8,29.90,SSW,192,0.0,0.0,97,0.00,,,0.04,155,Wunderground v.1.15,2013-07-07 22:09:00,
2013-07-07 18:14:00,75.7,74.8,29.90,SSW,192,0.0,0.0,97,0.00,,,0.04,158,Wunderground v.1.15,2013-07-07 22:14:00,
2013-07-07 18:19:00,75.8,74.9,29.90,SSW,192,0.0,0.0,97,0.00,,,0.04,155,Wunderground v.1.15,2013-07-07 22:19:00,
2013-07-07 18:24:00,76.0,75.1,29.90,SSW,192,0.0,0.0,97,0.00,,,0.04,139,Wunderground v.1.15,2013-07-07 22:24:00,
2013-07-07 18:34:00,76.2,75.3,29.90,SSW,192,0.0,0.0,97,0.00,,,0.04,111,Wunderground v.1.15,2013-07-07 22:34:00,
2013-07-07 18:39:00,76.3,75.4,29.91,SSW,192,0.0,0.0,97,0.00,,,0.04,100,Wunderground v.1.15,2013-07-07 22:39:00,
2013-07-07 18:44:00,76.3,75.4,29.90,SSW,192,0.0,0.0,97,0.00,,,0.04,91,Wunderground v.1.15,2013-07-07 22:44:00,
2013-07-07 18:54:00,76.5,75.6,29.90,SE,146,0.0,0.0,97,0.00,,,0.04,79,Wunderground v.1.15,2013-07-07 22:54:00,
2013-07-07 18:59:00,76.5,75.6,29.90,SE,146,0.0,0.0,97,0.00,,,0.04,72,Wunderground v.1.15,2013-07-07 22:59:00,
2013-07-07 19:09:00,76.7,75.8,29.90,SE,146,0.0,0.0,97,0.00,,,0.04,60,Wunderground v.1.15,2013-07-07 23:09:00,
2013-07-07 19:19:00,76.5,75.6,29.90,SE,146,0.0,0.0,97,0.00,,,0.04,44,Wunderground v.1.15,2013-07-07 23:19:00,
2013-07-07 19:29:00,76.2,75.0,29.90,SE,146,0.0,0.0,96,0.00,,,0.04,33,Wunderground v.1.15,2013-07-07 23:29:00,
2013-07-07 19:34:00,76.1,74.9,29.91,SE,146,0.0,0.0,96,0.00,,,0.04,30,Wunderground v.1.15,2013-07-07 23:34:00,
2013-07-07 19:39:00,76.0,74.8,29.91,SE,146,0.0,0.0,96,0.00,,,0.04,28,Wunderground v.1.15,2013-07-07 23:39:00,
2013-07-07 19:44:00,75.9,74.7,29.91,SE,146,0.0,0.0,96,0.00,,,0.04,26,Wunderground v.1.15,2013-07-07 23:44:00,
2013-07-07 19:54:00,75.6,74.4,29.91,SE,146,0.0,0.0,96,0.00,,,0.04,25,Wunderground v.1.15,2013-07-07 23:54:00,
2013-07-07 20:04:00,75.2,74.0,29.91,SSE,152,0.0,0.0,96,0.00,,,0.04,16,Wunderground v.1.15,2013-07-08 00:04:00,
2013-07-07 20:09:00,75.1,73.9,29.91,SW,214,0.0,0.0,96,0.00,,,0.04,12,Wunderground v.1.15,2013-07-08 00:09:00,
2013-07-07 20:19:00,74.9,74.0,29.91,SW,214,0.0,0.0,97,0.00,,,0.04,5,Wunderground v.1.15,2013-07-08 00:19:00,
2013-07-07 20:29:00,74.6,73.7,29.91,SW,214,0.0,0.0,97,0.00,,,0.04,0,Wunderground v.1.15,2013-07-08 00:29:00,
2013-07-07 20:34:00,74.6,73.7,29.91,SW,214,0.0,0.0,97,0.00,,,0.04,0,Wunderground v.1.15,2013-07-08 00:34:00,
2013-07-07 20:39:00,74.5,73.6,29.91,SW,214,0.0,0.0,97,0.00,,,0.04,0,Wunderground v.1.15,2013-07-08 00:39:00,
2013-07-07 20:49:00,74.3,73.4,29.92,SW,214,0.0,0.0,97,0.00,,,0.04,0,Wunderground v.1.15,2013-07-08 00:49:00,
2013-07-07 20:54:00,74.2,73.3,29.92,SW,214,0.0,0.0,97,0.00,,,0.04,0,Wunderground v.1.15,2013-07-08 00:54:00,
2013-07-07 20:59:00,74.2,73.3,29.92,SSW,197,0.0,0.0,97,0.00,,,0.04,0,Wunderground v.1.15,2013-07-08 00:59:00,
2013-07-07 21:04:00,74.1,73.2,29.92,SSW,197,0.0,0.0,97,0.00,,,0.04,0,Wunderground v.1.15,2013-07-08 01:04:00,
2013-07-07 21:14:00,74.0,73.1,29.92,SSW,197,0.0,0.0,97,0.00,,,0.04,0,Wunderground v.1.15,2013-07-08 01:14:00,
2013-07-07 21:19:00,73.9,73.3,29.92,SSW,197,0.0,0.0,98,0.00,,,0.04,0,Wunderground v.1.15,2013-07-08 01:19:00,
2013-07-07 21:29:00,73.8,73.2,29.92,SSW,197,0.0,0.0,98,0.00,,,0.04,0,Wunderground v.1.15,2013-07-08 01:29:00,
2013-07-07 21:34:00,73.8,73.2,29.92,SSW,197,0.0,0.0,98,0.00,,,0.04,0,Wunderground v.1.15,2013-07-08 01:34:00,
2013-07-07 21:39:00,73.8,73.2,29.92,SSW,197,0.0,0.0,98,0.00,,,0.04,0,Wunderground v.1.15,2013-07-08 01:39:00,
2013-07-07 21:44:00,73.8,73.2,29.92,SSW,197,0.0,0.0,98,0.00,,,0.04,0,Wunderground v.1.15,2013-07-08 01:44:00,
2013-07-07 21:54:00,73.7,73.1,29.92,SSW,197,0.0,0.0,98,0.00,,,0.04,0,Wunderground v.1.15,2013-07-08 01:54:00,
2013-07-07 21:59:00,73.7,73.1,29.92,SSW,197,0.0,0.0,98,0.00,,,0.04,0,Wunderground v.1.15,2013-07-08 01:59:00,
2013-07-07 22:09:00,73.6,73.0,29.92,SSW,197,0.0,0.0,98,0.00,,,0.04,0,Wunderground v.1.15,2013-07-08 02:09:00,
2013-07-07 22:19:00,73.6,73.0,29.91,South,190,0.0,0.0,98,0.00,,,0.04,0,Wunderground v.1.15,2013-07-08 02:19:00,
2013-07-07 22:24:00,73.6,73.0,29.91,ESE,116,0.0,0.0,98,0.00,,,0.04,0,Wunderground v.1.15,2013-07-08 02:24:00,
2013-07-07 22:29:00,73.6,73.0,29.91,ESE,116,0.0,0.0,98,0.00,,,0.04,0,Wunderground v.1.15,2013-07-08 02:29:00,
2013-07-07 22:39:00,73.5,73.2,29.91,ESE,116,0.0,0.0,99,0.00,,,0.04,0,Wunderground v.1.15,2013-07-08 02:39:00,
2013-07-07 22:49:00,73.5,73.2,29.89,ESE,116,0.0,0.0,99,0.00,,,0.04,0,Wunderground v.1.15,2013-07-08 02:49:00,
2013-07-07 22:59:00,73.5,73.2,29.88,ESE,116,0.0,0.0,99,0.00,,,0.04,0,Wunderground v.1.15,2013-07-08 02:59:00,
2013-07-07 23:04:00,73.6,73.3,29.89,ESE,116,0.0,0.0,99,0.00,,,0.04,0,Wunderground v.1.15,2013-07-08 03:04:00,
2013-07-07 23:09:00,73.5,73.2,29.89,ESE,116,0.0,0.0,99,0.00,,,0.04,0,Wunderground v.1.15,2013-07-08 03:09:00,
2013-07-07 23:14:00,73.5,73.2,29.89,NNW,348,0.0,0.0,99,0.00,,,0.04,0,Wunderground v.1.15,2013-07-08 03:14:00,
2013-07-07 23:19:00,73.5,73.2,29.90,NNW,348,0.0,0.0,99,0.00,,,0.04,0,Wunderground v.1.15,2013-07-08 03:19:00,
2013-07-07 23:29:00,73.4,73.1,29.90,ENE,57,0.0,1.0,99,0.00,,,0.04,0,Wunderground v.1.15,2013-07-08 03:29:00,
2013-07-07 23:39:00,73.3,73.0,29.91,ENE,67,0.0,0.0,99,0.00,,,0.04,0,Wunderground v.1.15,2013-07-08 03:39:00,
2013-07-07 23:44:00,73.2,72.9,29.91,SE,124,1.0,1.0,99,0.00,,,0.04,0,Wunderground v.1.15,2013-07-08 03:44:00,
2013-07-07 23:54:00,73.0,72.7,29.91,East,101,1.0,2.0,99,0.00,,,0.04,0,Wunderground v.1.15,2013-07-08 03:54:00,
2013-07-07 23:59:00,72.7,72.1,29.91,East,96,1.0,2.0,98,0.00,,,0.04,0,Wunderground v.1.15,2013-07-08 03:59:00,